KBRD/BRD METAR and TAF weather

Enter ICAO airport designator
Station Type Date Time Source
KBRD METAR 2019/02/21 11:36 UTC NOAA

KBRD 211136Z AUTO 00000KT 4SM HZ BKN018 BKN024 OVC044 M11/M14 A2987 RMK AO2 SNB1055E28 P0000 T11111139


Station Type Date Time Source
KBRD Decoded METAR 2019/02/21 11:36 UTC NOAA

BRAINERD-CROW WING CO AIRPORT , MN, United States (KBRD) 46-24N 94-08W 372M
Feb 21, 2019 - 06:36 AM EST / 2019.02.21 1136 UTC
Wind: Calm:0
Visibility: 4 mile(s):0
Sky conditions: overcast
Weather: haze
Precipitation last hour: A trace
Temperature: 12.0 F (-11.1 C)
Dew Point: 7.0 F (-13.9 C)
Relative Humidity: 79%
Pressure (altimeter): 29.87 in. Hg (1011 hPa)
ob: KBRD 211136Z AUTO 00000KT 4SM HZ BKN018 BKN024 OVC044 M11/M14 A2987 RMK AO2 SNB1055E28 P0000 T11111139
cycle: 11

Station Type Date Time Source
KBRD TAF 2019/02/21 12:39 UTC NOAA

TAF KBRD 211137Z 2112/2212 VRB03KT 5SM BR SCT003 BKN020
TEMPO 2112/2115 6SM BR SCT020
FM211800 28006KT P6SM BKN015
FM220800 VRB03KT P6SM SCT015 OVC025


Example: see airport list